This is the latest recevied weather packets stored in our database for station/object EW5546. If no packets are shown the sender has not sent any weather packets the latest 10 day(s).
| Time | Temp. | Humidity | Pressure | Rain* | Wind** | Luminosity | Snow |
|---|---|---|---|---|---|---|---|
| 1777646418 | 22.22° C | 23% | 1022.1 hPa | 0 mm | - | - | - |
| 1777645241 | 22.22° C | 24% | 1023.1 hPa | 0 mm | - | - | - |
| 1777629059 | 17.78° C | 30% | 1024.1 hPa | 0 mm | - | - | - |
| 1777626635 | 17.22° C | 31% | 1024.1 hPa | 0 mm | - | - | - |
| 1777624218 | 16.67° C | 31% | 1024.1 hPa | 0 mm | - | - | - |
| 1777623016 | 16.11° C | 32% | 1024.1 hPa | 0 mm | - | - | - |
| 1777619445 | 15° C | 34% | 1024.1 hPa | 0 mm | - | - | - |
| 1777616422 | 13.33° C | 35% | 1024.1 hPa | 0 mm | - | - | - |
| 1777614042 | 12.22° C | 35% | 1024.1 hPa | 0 mm | - | - | - |
| 1777606246 | 10° C | 33% | 1024.1 hPa | 0 mm | - | - | - |
| 1777602618 | 10.56° C | 32% | 1024.1 hPa | 0 mm | - | - | - |
| 1777602035 | 10.56° C | 31% | 1024.1 hPa | 0 mm | - | - | - |
| 1777589428 | 11.11° C | 28% | 1025.1 hPa | 0 mm | - | - | - |
| 1777588251 | 11.11° C | 28% | 1025.1 hPa | 0 mm | - | - | - |
| 1777585230 | 11.11° C | 28% | 1025.1 hPa | 0 mm | - | - | - |
| 1777581635 | 11.67° C | 28% | 1025.1 hPa | 0 mm | - | - | - |
| 1777580425 | 11.11° C | 28% | 1025.5 hPa | 0 mm | - | - | - |
| 1777578017 | 11.67° C | 27% | 1026.2 hPa | 0 mm | - | - | - |
| 1777567827 | 12.22° C | 16% | 1026.2 hPa | 0 mm | - | - | - |
| 1777565466 | 12.78° C | 10% | 1026.2 hPa | 0 mm | - | - | - |
| 1777564220 | 12.78° C | 8% | 1026.2 hPa | 0 mm | - | - | - |
| 1777563623 | 12.78° C | 8% | 1026.2 hPa | 0 mm | - | - | - |
| 1777559444 | 14.44° C | 6% | 1026.2 hPa | 0 mm | - | - | - |
| 1777557636 | 15.56° C | 6% | 1026.2 hPa | 0 mm | - | - | - |
| 1777554632 | 16.11° C | 9% | 1026.2 hPa | 0 mm | - | - | - |
* Rain latest hour (hover to see other rain measurements)
** Current wind speed in m/s (hover to see current wind gust speed)